Time;durP1;ratioP1;P1;durP2;ratioP2;P2;SDS_P1;SDS_P2;PMS_P1;PMS_P2;Temp;Humidity;BMP_temperature;BMP_pressure;BME280_temperature;BME280_humidity;BME280_pressure;Samples;Min_cycle;Max_cycle;Signal;HPM_P1;HPM_P2
2022/10/24 00:01:12;;;;;;;16.77;2.95;;;14.50;99.90;;;;;;4943375;29;20047;-67
2022/10/24 00:03:39;;;;;;;14.57;2.78;;;14.40;99.90;;;;;;4946541;29;20047;-64
2022/10/24 00:06:07;;;;;;;14.85;2.65;;;14.30;99.90;;;;;;4945381;29;20053;-64
2022/10/24 00:08:34;;;;;;;16.75;3.28;;;14.20;99.90;;;;;;4942018;29;20052;-66
2022/10/24 00:11:01;;;;;;;16.88;2.00;;;14.10;99.90;;;;;;4945290;29;20499;-64
2022/10/24 00:13:28;;;;;;;8.43;1.45;;;14.10;99.90;;;;;;4946781;28;20059;-64
2022/10/24 00:15:55;;;;;;;15.75;2.30;;;14.10;99.90;;;;;;4945825;28;20040;-66
2022/10/24 00:18:21;;;;;;;19.45;2.88;;;14.10;99.90;;;;;;4944746;29;20497;-65
2022/10/24 00:20:48;;;;;;;9.40;2.42;;;14.10;99.90;;;;;;4942521;29;20047;-65
2022/10/24 00:23:15;;;;;;;22.63;3.72;;;14.00;99.90;;;;;;4943445;29;20147;-65
2022/10/24 00:25:41;;;;;;;18.55;2.65;;;14.00;99.90;;;;;;4943308;28;20047;-65
2022/10/24 00:28:08;;;;;;;19.88;5.25;;;14.10;99.90;;;;;;4947494;29;20052;-64
2022/10/24 00:30:35;;;;;;;18.88;4.00;;;14.10;99.90;;;;;;4941566;29;20130;-64
2022/10/24 00:33:02;;;;;;;21.48;2.92;;;14.10;99.90;;;;;;4936434;29;20050;-64
2022/10/24 00:35:28;;;;;;;14.13;2.75;;;14.00;99.90;;;;;;4942970;29;20050;-64
2022/10/24 00:37:55;;;;;;;15.75;3.95;;;14.00;99.90;;;;;;4951149;29;20058;-64
2022/10/24 00:40:22;;;;;;;12.82;2.85;;;14.00;99.90;;;;;;4945338;29;20051;-64
2022/10/24 00:42:49;;;;;;;15.82;2.58;;;14.00;99.90;;;;;;4957252;29;20043;-64
2022/10/24 00:45:57;;;;;;;17.77;2.85;;;14.00;99.90;;;;;;4948830;29;20046;-64
2022/10/24 00:48:27;;;;;;;13.63;3.00;;;14.00;99.90;;;;;;4917568;29;20507;-64
2022/10/24 00:51:02;;;;;;;13.65;2.60;;;14.00;99.90;;;;;;4939481;29;20078;-64
2022/10/24 00:53:30;;;;;;;13.63;2.40;;;13.90;99.90;;;;;;4920040;29;20051;-64
2022/10/24 00:55:58;;;;;;;7.95;2.53;;;14.00;99.90;;;;;;4935006;29;20055;-64
2022/10/24 00:58:26;;;;;;;14.05;3.13;;;14.00;99.90;;;;;;4953350;28;20055;-64
2022/10/24 01:00:53;;;;;;;15.07;2.53;;;14.00;99.90;;;;;;4936632;29;20054;-64
2022/10/24 01:03:20;;;;;;;18.98;2.65;;;14.10;99.90;;;;;;4951845;29;20051;-64
2022/10/24 01:06:21;;;;;;;19.92;2.85;;;14.10;99.90;;;;;;4957007;28;20052;-64
2022/10/24 01:09:00;;;;;;;12.82;3.60;;;14.10;99.90;;;;;;4950976;29;20051;-64
2022/10/24 01:11:33;;;;;;;20.50;5.05;;;14.10;99.90;;;;;;4950117;28;20083;-64
2022/10/24 01:14:26;;;;;;;18.88;2.78;;;14.10;99.90;;;;;;4953050;29;20054;-64
2022/10/24 01:17:16;;;;;;;13.65;2.30;;;14.10;99.90;;;;;;4954206;29;20414;-64
2022/10/24 01:20:02;;;;;;;19.83;3.47;;;14.10;99.90;;;;;;4954026;28;20118;-64
2022/10/24 01:22:48;;;;;;;13.98;3.05;;;14.10;99.90;;;;;;4591175;28;10000445;-64
2022/10/24 01:26:02;;;;;;;14.98;2.78;;;14.00;99.90;;;;;;4943793;29;20044;-63
2022/10/24 01:28:39;;;;;;;20.02;2.42;;;14.10;99.90;;;;;;4923240;28;20055;-63
2022/10/24 01:31:30;;;;;;;23.60;4.43;;;14.00;99.90;;;;;;4966652;28;20055;-65
2022/10/24 01:34:01;;;;;;;15.15;2.83;;;14.00;99.90;;;;;;4974198;28;20048;-65
2022/10/24 01:36:50;;;;;;;17.80;2.60;;;14.10;99.90;;;;;;4946311;29;20062;-64
2022/10/24 01:39:18;;;;;;;21.80;3.15;;;14.10;99.90;;;;;;4959490;29;20063;-65
2022/10/24 01:41:45;;;;;;;9.50;2.28;;;14.10;99.90;;;;;;4927938;29;20415;-65
2022/10/24 01:44:26;;;;;;;10.98;2.40;;;14.10;99.90;;;;;;4961054;29;20051;-65
2022/10/24 01:46:58;;;;;;;22.80;1.80;;;14.00;99.90;;;;;;4960841;29;20051;-65
2022/10/24 01:49:27;;;;;;;9.15;1.85;;;14.00;99.90;;;;;;4945452;29;20047;-65
2022/10/24 01:51:55;;;;;;;17.33;2.28;;;14.00;99.90;;;;;;4957454;29;20051;-65
2022/10/24 01:54:22;;;;;;;11.57;3.60;;;14.00;99.90;;;;;;4942186;29;20503;-65
2022/10/24 01:56:50;;;;;;;7.50;1.98;;;14.00;99.90;;;;;;4968824;28;20130;-65
2022/10/24 01:59:46;;;;;;;11.93;1.80;;;14.00;99.90;;;;;;4957675;29;20380;-65
2022/10/24 02:02:20;;;;;;;11.73;1.95;;;14.10;99.90;;;;;;4953896;29;20051;-65
2022/10/24 02:04:56;;;;;;;;;;;14.00;99.90;;;;;;4951298;29;20051;-65
2022/10/24 02:07:22;;;;;;;10.23;1.95;;;14.00;99.90;;;;;;4952819;29;19926;-65
2022/10/24 02:09:52;;;;;;;8.00;1.23;;;14.00;99.90;;;;;;4942305;29;20043;-65
2022/10/24 02:12:18;;;;;;;8.10;1.63;;;14.00;99.90;;;;;;4953294;29;20496;-65
2022/10/24 02:14:48;;;;;;;5.55;1.08;;;14.00;99.90;;;;;;4952204;29;20138;-65
2022/10/24 02:17:15;;;;;;;9.30;1.33;;;14.10;99.90;;;;;;4936730;29;20518;-65
2022/10/24 02:19:41;;;;;;;3.22;0.70;;;14.10;99.90;;;;;;4925367;29;20083;-65
2022/10/24 02:22:30;;;;;;;7.03;0.98;;;14.00;99.90;;;;;;4942037;29;20130;-65
2022/10/24 02:25:01;;;;;;;5.82;0.73;;;14.00;99.90;;;;;;4953953;29;20047;-65
2022/10/24 02:27:48;;;;;;;4.00;0.90;;;14.00;99.90;;;;;;4939249;29;20503;-65
2022/10/24 02:30:18;;;;;;;1.98;0.40;;;14.00;99.90;;;;;;4950409;29;20144;-65
2022/10/24 02:32:47;;;;;;;4.95;0.80;;;14.00;99.90;;;;;;4958014;28;20047;-65
2022/10/24 02:35:14;;;;;;;3.45;0.77;;;13.90;99.90;;;;;;4954010;29;20047;-64
2022/10/24 02:37:50;;;;;;;3.50;0.82;;;13.90;99.90;;;;;;4938940;29;20122;-65
2022/10/24 02:40:17;;;;;;;1.88;0.52;;;13.80;99.90;;;;;;4956174;28;20053;-64
2022/10/24 02:42:45;;;;;;;3.53;0.70;;;13.80;99.90;;;;;;4953310;29;20062;-64
2022/10/24 02:45:11;;;;;;;3.53;1.20;;;13.80;99.90;;;;;;4950971;28;20062;-65
2022/10/24 02:47:39;;;;;;;2.15;0.55;;;13.70;99.90;;;;;;4938632;29;20134;-65
2022/10/24 02:50:06;;;;;;;5.88;0.85;;;13.70;99.90;;;;;;4938860;29;20051;-64
2022/10/24 02:52:33;;;;;;;0.95;0.43;;;13.70;99.90;;;;;;4953278;29;20415;-64
2022/10/24 02:55:00;;;;;;;2.28;0.50;;;13.70;99.90;;;;;;4942187;29;20051;-64
2022/10/24 02:57:27;;;;;;;4.82;0.60;;;13.70;99.90;;;;;;4937832;29;20055;-64
2022/10/24 02:59:53;;;;;;;1.35;0.30;;;13.70;99.90;;;;;;4943085;29;20062;-64
2022/10/24 03:02:21;;;;;;;3.35;0.50;;;13.70;99.90;;;;;;4955486;29;20496;-64
2022/10/24 03:04:48;;;;;;;6.00;0.77;;;13.70;99.90;;;;;;4937784;29;20071;-64
2022/10/24 03:07:15;;;;;;;4.13;0.77;;;13.70;99.90;;;;;;4954121;29;20051;-64
2022/10/24 03:09:41;;;;;;;4.65;0.90;;;13.70;99.90;;;;;;4941179;29;20415;-64
2022/10/24 03:12:11;;;;;;;2.80;0.60;;;13.70;99.90;;;;;;4936314;29;20051;-64
2022/10/24 03:14:37;;;;;;;2.35;0.60;;;13.70;99.90;;;;;;4933842;29;20400;-64
2022/10/24 03:17:04;;;;;;;4.90;0.98;;;13.70;99.90;;;;;;4937042;28;20060;-64
2022/10/24 03:19:31;;;;;;;2.10;0.57;;;13.70;99.90;;;;;;4942997;29;20047;-64
2022/10/24 03:21:58;;;;;;;2.25;0.47;;;13.70;99.90;;;;;;4939390;28;20527;-64
2022/10/24 03:24:24;;;;;;;1.60;0.45;;;13.70;99.90;;;;;;4939606;29;20048;-64
2022/10/24 03:27:09;;;;;;;2.80;0.80;;;13.70;99.90;;;;;;4952164;29;20047;-65
2022/10/24 03:29:36;;;;;;;1.90;0.60;;;13.70;99.90;;;;;;4948702;29;20082;-65
2022/10/24 03:32:04;;;;;;;5.88;0.80;;;13.70;99.90;;;;;;4949487;29;20050;-66
2022/10/24 03:34:31;;;;;;;5.25;0.68;;;13.70;99.90;;;;;;4949940;28;20044;-64
2022/10/24 03:36:57;;;;;;;1.35;0.50;;;13.70;99.90;;;;;;4946268;29;20082;-65
2022/10/24 03:39:26;;;;;;;3.00;0.60;;;13.70;99.90;;;;;;4950811;29;20048;-64
2022/10/24 03:41:53;;;;;;;6.97;1.77;;;13.70;99.90;;;;;;4946953;29;20052;-65
2022/10/24 03:44:19;;;;;;;2.53;0.57;;;13.70;99.90;;;;;;4942001;29;20051;-65
2022/10/24 03:46:46;;;;;;;6.15;0.70;;;13.70;99.90;;;;;;4949265;29;20048;-65
2022/10/24 03:49:13;;;;;;;7.25;0.93;;;13.60;99.90;;;;;;4939726;29;20058;-65
2022/10/24 03:51:39;;;;;;;4.10;0.60;;;13.60;99.90;;;;;;4947154;29;20510;-64
2022/10/24 03:54:06;;;;;;;3.08;0.90;;;13.60;99.90;;;;;;4956190;29;20054;-65
2022/10/24 03:56:33;;;;;;;3.17;0.73;;;13.60;99.90;;;;;;4941583;29;20043;-65
2022/10/24 03:58:59;;;;;;;5.95;1.20;;;13.60;99.90;;;;;;4954093;29;20047;-64
2022/10/24 04:01:26;;;;;;;3.92;0.75;;;13.60;99.90;;;;;;4941714;29;20051;-65
2022/10/24 04:03:53;;;;;;;4.30;0.90;;;13.60;99.90;;;;;;4949636;28;20043;-64
2022/10/24 04:06:20;;;;;;;4.20;1.10;;;13.60;99.90;;;;;;4949632;29;20055;-65
2022/10/24 04:08:46;;;;;;;2.55;0.68;;;13.60;99.90;;;;;;4953995;29;20062;-63
2022/10/24 04:11:13;;;;;;;2.42;0.82;;;13.50;99.90;;;;;;4945447;29;20044;-65
2022/10/24 04:13:40;;;;;;;6.22;1.90;;;13.50;99.90;;;;;;4949839;29;20047;-65
2022/10/24 04:16:07;;;;;;;5.90;0.85;;;13.50;99.90;;;;;;4952496;28;20047;-64
2022/10/24 04:18:34;;;;;;;2.70;1.10;;;13.50;99.90;;;;;;4939856;29;20478;-65
2022/10/24 04:21:00;;;;;;;5.40;1.23;;;13.50;99.90;;;;;;4938710;29;20059;-65
2022/10/24 04:23:29;;;;;;;5.35;1.42;;;13.40;99.90;;;;;;4942521;29;20048;-64
2022/10/24 04:25:56;;;;;;;9.60;1.52;;;13.30;99.90;;;;;;4948835;29;20047;-65
2022/10/24 04:28:23;;;;;;;2.50;0.90;;;13.40;99.90;;;;;;4944557;29;20118;-64
2022/10/24 04:30:54;;;;;;;5.65;1.95;;;13.30;99.90;;;;;;4935482;29;20047;-64
2022/10/24 04:33:21;;;;;;;6.13;1.05;;;13.30;99.90;;;;;;4945296;29;20056;-65
2022/10/24 04:35:48;;;;;;;7.30;1.13;;;13.30;99.90;;;;;;4950686;29;20130;-64
2022/10/24 04:38:15;;;;;;;4.00;1.00;;;13.30;99.90;;;;;;4945237;29;20432;-64
2022/10/24 04:40:50;;;;;;;4.47;1.00;;;13.30;99.90;;;;;;4934682;29;20047;-64
2022/10/24 04:43:17;;;;;;;4.15;1.00;;;13.30;99.90;;;;;;4941489;29;20043;-65
2022/10/24 04:45:43;;;;;;;9.65;1.10;;;13.30;99.90;;;;;;4952775;28;20047;-65
2022/10/24 04:48:10;;;;;;;4.70;0.68;;;13.30;99.90;;;;;;4941287;29;20048;-64
2022/10/24 04:50:38;;;;;;;5.68;1.10;;;13.30;99.90;;;;;;4953562;29;20059;-64
2022/10/24 04:53:05;;;;;;;4.50;1.10;;;13.30;99.90;;;;;;4940243;29;20055;-65
2022/10/24 04:55:32;;;;;;;5.43;1.48;;;13.30;99.90;;;;;;4957504;29;20047;-64
2022/10/24 04:57:59;;;;;;;4.28;0.85;;;13.20;99.90;;;;;;4954379;28;20101;-64
2022/10/24 05:00:25;;;;;;;3.22;1.13;;;13.20;99.90;;;;;;4939266;29;20051;-63
2022/10/24 05:02:52;;;;;;;3.40;1.10;;;13.10;99.90;;;;;;4936958;29;20048;-65
2022/10/24 05:05:23;;;;;;;4.75;1.15;;;13.10;99.90;;;;;;4949706;29;20054;-64
2022/10/24 05:07:50;;;;;;;4.65;0.80;;;13.00;99.90;;;;;;4948737;29;20050;-64
2022/10/24 05:10:17;;;;;;;4.72;0.88;;;13.00;99.90;;;;;;4951768;29;20055;-64
2022/10/24 05:12:44;;;;;;;3.05;0.93;;;13.00;99.90;;;;;;4952954;29;20056;-66
2022/10/24 05:15:13;;;;;;;4.47;0.80;;;13.10;99.90;;;;;;4949814;29;20047;-65
2022/10/24 05:17:39;;;;;;;2.25;0.63;;;13.10;99.90;;;;;;4969394;28;20055;-63
2022/10/24 05:20:07;;;;;;;3.90;1.23;;;13.10;99.90;;;;;;4947364;29;20051;-62
2022/10/24 05:22:34;;;;;;;5.13;1.30;;;13.10;99.90;;;;;;4949307;29;20082;-62
2022/10/24 05:25:00;;;;;;;3.03;0.68;;;13.00;99.90;;;;;;4948280;29;20052;-63
2022/10/24 05:27:27;;;;;;;3.90;0.70;;;13.10;99.90;;;;;;4939166;29;20047;-63
2022/10/24 05:29:54;;;;;;;4.03;0.70;;;13.00;99.90;;;;;;4948450;29;20074;-63
2022/10/24 05:32:21;;;;;;;3.63;0.95;;;13.10;99.90;;;;;;4937815;29;20099;-64
2022/10/24 05:34:48;;;;;;;4.72;1.00;;;13.10;99.90;;;;;;4952293;29;20066;-64
2022/10/24 05:37:16;;;;;;;5.40;0.77;;;13.10;99.90;;;;;;4955583;29;20451;-64
2022/10/24 05:39:42;;;;;;;8.35;1.00;;;13.00;99.90;;;;;;4942136;29;20536;-62
2022/10/24 05:42:10;;;;;;;2.30;0.93;;;13.10;99.90;;;;;;4937874;29;20051;-64
2022/10/24 05:44:37;;;;;;;4.60;0.60;;;13.10;99.90;;;;;;4948049;29;20047;-63
2022/10/24 05:47:03;;;;;;;3.08;0.65;;;13.10;99.90;;;;;;4937168;29;20051;-63
2022/10/24 05:49:30;;;;;;;2.47;0.50;;;13.10;99.90;;;;;;4945730;29;20051;-64
2022/10/24 05:51:57;;;;;;;0.85;0.55;;;13.00;99.90;;;;;;4949647;29;20066;-63
2022/10/24 05:54:24;;;;;;;3.05;0.60;;;13.00;99.90;;;;;;4951911;29;20049;-65
2022/10/24 05:57:03;;;;;;;1.92;0.70;;;13.00;99.90;;;;;;4941064;29;20052;-62
2022/10/24 05:59:30;;;;;;;2.13;0.80;;;12.90;99.90;;;;;;4937540;29;20480;-63
2022/10/24 06:01:57;;;;;;;3.38;0.68;;;12.90;99.90;;;;;;4950204;29;20071;-63
2022/10/24 06:04:24;;;;;;;3.10;0.90;;;12.90;99.90;;;;;;4954248;28;20126;-63
2022/10/24 06:06:50;;;;;;;3.00;0.88;;;12.90;99.90;;;;;;4945137;29;20054;-64
2022/10/24 06:09:17;;;;;;;1.63;0.60;;;12.80;99.90;;;;;;4937132;29;20054;-63
2022/10/24 06:11:44;;;;;;;2.88;0.57;;;12.80;99.90;;;;;;4947653;29;20071;-62
2022/10/24 06:14:11;;;;;;;2.55;0.32;;;12.80;99.90;;;;;;4939188;29;20043;-64
2022/10/24 06:16:37;;;;;;;1.52;0.68;;;12.70;99.90;;;;;;4945072;28;20047;-64
2022/10/24 06:19:04;;;;;;;7.57;0.85;;;12.70;99.90;;;;;;4952573;28;20488;-64
2022/10/24 06:21:32;;;;;;;3.42;0.60;;;12.70;99.90;;;;;;4949556;29;20055;-63
2022/10/24 06:23:59;;;;;;;5.25;0.50;;;12.70;99.90;;;;;;4940472;29;20126;-62
2022/10/24 06:26:26;;;;;;;2.78;0.57;;;12.60;99.90;;;;;;4949065;29;20143;-62
2022/10/24 06:28:53;;;;;;;2.13;0.43;;;12.60;99.90;;;;;;4944765;29;20064;-62
2022/10/24 06:31:20;;;;;;;3.25;0.63;;;12.60;99.90;;;;;;4953409;29;20086;-63
2022/10/24 06:33:47;;;;;;;9.18;4.28;;;12.60;99.90;;;;;;4954911;28;20055;-62
2022/10/24 06:36:14;;;;;;;1.85;0.80;;;12.60;99.90;;;;;;4926993;29;20058;-62
2022/10/24 06:38:41;;;;;;;4.70;0.88;;;12.60;99.90;;;;;;4608539;29;9999903;-63
2022/10/24 06:41:09;;;;;;;6.72;0.93;;;12.60;99.90;;;;;;4935743;29;20051;-64
2022/10/24 06:43:35;;;;;;;1.20;0.60;;;12.50;99.90;;;;;;4936036;29;20066;-61
2022/10/24 06:46:07;;;;;;;2.13;0.77;;;12.60;99.90;;;;;;4944665;29;20585;-62
2022/10/24 06:48:34;;;;;;;9.45;1.10;;;12.60;99.90;;;;;;4938767;28;20569;-64
2022/10/24 06:51:01;;;;;;;2.22;0.82;;;12.60;99.90;;;;;;4937794;29;20036;-62
2022/10/24 06:53:28;;;;;;;3.83;1.52;;;12.60;99.90;;;;;;4941211;28;20066;-63
2022/10/24 06:55:59;;;;;;;4.32;0.95;;;12.60;99.90;;;;;;4945720;29;20529;-62
2022/10/24 06:58:32;;;;;;;2.67;0.65;;;12.60;99.90;;;;;;4942414;29;20418;-64
2022/10/24 07:00:59;;;;;;;2.90;0.63;;;12.60;99.90;;;;;;4950537;28;20137;-62
2022/10/24 07:03:26;;;;;;;3.42;0.60;;;12.60;99.90;;;;;;4941431;29;20356;-62
2022/10/24 07:05:53;;;;;;;7.25;1.52;;;12.60;99.90;;;;;;4950624;29;20076;-63
2022/10/24 07:08:19;;;;;;;6.85;1.08;;;12.60;99.90;;;;;;4943514;29;20070;-63
2022/10/24 07:10:46;;;;;;;2.97;0.93;;;12.60;99.90;;;;;;4951969;28;20495;-63
2022/10/24 07:13:13;;;;;;;5.10;0.93;;;12.60;99.90;;;;;;4948807;29;20051;-62
2022/10/24 07:15:39;;;;;;;9.43;3.60;;;12.60;99.90;;;;;;4951452;29;20059;-64
2022/10/24 07:18:11;;;;;;;8.35;0.77;;;12.70;99.90;;;;;;4939515;29;20146;-63
2022/10/24 07:20:37;;;;;;;3.90;1.00;;;12.70;99.90;;;;;;4951158;29;20054;-63
2022/10/24 07:23:09;;;;;;;9.30;1.83;;;12.70;99.90;;;;;;4940043;29;20055;-63
2022/10/24 07:25:37;;;;;;;4.60;0.80;;;12.70;99.90;;;;;;4951511;29;20662;-63
2022/10/24 07:28:05;;;;;;;5.82;0.95;;;12.70;99.90;;;;;;4940868;28;20138;-63
2022/10/24 07:30:32;;;;;;;3.60;0.85;;;12.70;99.90;;;;;;4950343;28;20051;-62
2022/10/24 07:32:58;;;;;;;3.90;0.70;;;12.80;99.90;;;;;;4949067;29;20631;-62
2022/10/24 07:35:25;;;;;;;6.80;1.35;;;12.80;99.90;;;;;;4944535;29;20058;-62
2022/10/24 07:37:52;;;;;;;4.07;0.45;;;12.80;99.90;;;;;;4947636;29;20057;-63
2022/10/24 07:40:20;;;;;;;4.63;1.23;;;12.80;99.90;;;;;;4951845;29;20465;-62
2022/10/24 07:42:47;;;;;;;2.75;0.70;;;12.80;99.90;;;;;;4947532;29;20840;-62
2022/10/24 07:45:14;;;;;;;3.80;1.40;;;12.90;99.90;;;;;;4951706;28;20051;-62
2022/10/24 07:47:41;;;;;;;5.00;0.60;;;12.90;99.90;;;;;;4949262;29;20051;-62
2022/10/24 07:50:08;;;;;;;6.43;1.27;;;12.90;99.90;;;;;;4932278;29;20630;-62
2022/10/24 07:52:35;;;;;;;1.92;1.00;;;13.00;99.90;;;;;;4931849;29;20051;-62
2022/10/24 07:55:01;;;;;;;2.03;0.55;;;13.00;99.90;;;;;;4950166;29;20047;-62
2022/10/24 07:57:28;;;;;;;5.55;1.10;;;13.00;99.90;;;;;;4949865;28;20061;-62
2022/10/24 07:59:55;;;;;;;6.15;1.15;;;13.00;99.90;;;;;;4944058;29;20051;-62
2022/10/24 08:02:22;;;;;;;5.85;2.67;;;13.10;99.90;;;;;;4931464;29;20056;-62
2022/10/24 08:04:49;;;;;;;19.98;2.08;;;13.10;99.90;;;;;;4943168;28;20507;-62
2022/10/24 08:07:15;;;;;;;2.55;1.10;;;13.10;99.90;;;;;;4950479;28;20069;-62
2022/10/24 08:09:44;;;;;;;6.57;1.20;;;13.20;99.90;;;;;;4938235;28;20051;-63
2022/10/24 08:12:11;;;;;;;3.75;1.10;;;13.20;99.90;;;;;;4949215;29;20069;-63
2022/10/24 08:14:38;;;;;;;9.52;1.10;;;13.20;99.90;;;;;;4944920;29;20055;-63
2022/10/24 08:17:05;;;;;;;5.80;0.70;;;13.30;99.90;;;;;;4930772;29;20059;-63
2022/10/24 08:19:32;;;;;;;7.50;1.00;;;13.30;99.90;;;;;;4940229;29;20047;-64
2022/10/24 08:21:59;;;;;;;12.15;3.80;;;13.30;99.90;;;;;;4924032;29;20135;-63
2022/10/24 08:24:26;;;;;;;2.58;1.23;;;13.40;99.90;;;;;;4927334;29;20070;-63
2022/10/24 08:26:55;;;;;;;5.43;1.25;;;13.40;99.90;;;;;;4934327;29;20414;-63
2022/10/24 08:29:22;;;;;;;7.38;1.48;;;13.50;99.90;;;;;;4934699;29;20051;-62
2022/10/24 08:31:50;;;;;;;6.55;1.02;;;13.50;99.90;;;;;;4941196;28;20044;-63
2022/10/24 08:34:17;;;;;;;8.02;1.23;;;13.60;99.90;;;;;;4930369;29;20047;-63
2022/10/24 08:36:43;;;;;;;5.80;1.67;;;13.70;99.90;;;;;;4921333;29;20055;-63
2022/10/24 08:39:10;;;;;;;6.93;1.40;;;13.90;99.90;;;;;;4947877;29;21249;-62
2022/10/24 08:41:42;;;;;;;5.30;1.05;;;14.20;99.90;;;;;;4939285;28;20060;-62
2022/10/24 08:44:28;;;;;;;4.97;1.33;;;14.40;99.90;;;;;;4927202;29;20055;-63
2022/10/24 08:47:19;;;;;;;5.88;1.50;;;14.70;99.90;;;;;;4911232;29;20130;-63
2022/10/24 08:50:01;;;;;;;4.95;1.00;;;15.00;99.90;;;;;;4928774;29;20048;-63
2022/10/24 08:52:37;;;;;;;14.50;1.27;;;15.10;99.90;;;;;;4942079;28;20139;-63
2022/10/24 08:55:10;;;;;;;8.38;1.70;;;15.30;99.90;;;;;;4941342;29;20048;-63
2022/10/24 08:57:54;;;;;;;5.60;0.80;;;15.40;99.90;;;;;;4938122;29;20079;-62
2022/10/24 09:00:23;;;;;;;6.97;1.30;;;15.30;99.90;;;;;;4908752;29;20047;-64
2022/10/24 09:03:17;;;;;;;11.82;1.40;;;15.10;99.90;;;;;;4925757;29;20052;-63
2022/10/24 09:06:17;;;;;;;4.13;1.02;;;15.00;99.90;;;;;;4922728;29;20059;-63
2022/10/24 09:08:57;;;;;;;3.40;0.85;;;14.90;99.90;;;;;;4948670;29;20118;-63
2022/10/24 09:11:34;;;;;;;4.00;1.30;;;14.90;99.90;;;;;;4944257;28;20044;-63
2022/10/24 09:14:06;;;;;;;113.47;11.80;;;14.80;99.90;;;;;;4944968;29;20066;-63
2022/10/24 09:16:34;;;;;;;6.28;1.27;;;14.80;99.90;;;;;;4930629;29;20399;-63
2022/10/24 09:19:00;;;;;;;6.32;1.10;;;14.70;99.90;;;;;;4911559;29;20052;-63
2022/10/24 09:21:29;;;;;;;4.45;1.23;;;14.70;99.90;;;;;;4927798;29;20138;-63
2022/10/24 09:23:55;;;;;;;9.50;1.15;;;14.60;99.90;;;;;;4931108;29;20055;-63
2022/10/24 09:26:26;;;;;;;8.95;1.25;;;14.60;99.90;;;;;;4936780;29;20047;-63
2022/10/24 09:28:55;;;;;;;6.60;1.15;;;14.60;99.90;;;;;;4917042;29;20151;-61
2022/10/24 09:31:23;;;;;;;5.53;1.17;;;14.60;99.90;;;;;;4934221;29;20053;-62
2022/10/24 09:33:51;;;;;;;6.88;1.00;;;14.60;99.90;;;;;;4948889;29;20341;-62
2022/10/24 09:36:19;;;;;;;1.88;0.85;;;14.60;99.90;;;;;;4948480;28;20165;-62
2022/10/24 09:38:47;;;;;;;5.43;1.23;;;14.70;99.90;;;;;;4938394;28;20085;-61
2022/10/24 09:41:25;;;;;;;10.63;1.75;;;14.70;99.90;;;;;;4949341;29;20086;-62
2022/10/24 09:43:54;;;;;;;5.18;1.98;;;14.70;99.90;;;;;;4942363;29;20563;-62
2022/10/24 09:46:23;;;;;;;9.65;1.05;;;14.70;99.90;;;;;;4933065;29;20549;-61
2022/10/24 09:48:57;;;;;;;2.95;0.93;;;14.80;99.90;;;;;;4929729;29;20526;-61
2022/10/24 09:51:25;;;;;;;;;;;14.80;99.90;;;;;;4932602;29;20048;-61
2022/10/24 09:54:09;;;;;;;5.20;1.20;;;14.90;99.90;;;;;;4942077;28;19922;-63
2022/10/24 09:56:38;;;;;;;5.13;1.45;;;15.00;99.90;;;;;;4919771;29;20055;-62
2022/10/24 09:59:42;;;;;;;10.60;1.70;;;15.10;99.90;;;;;;4910891;29;20151;-63
2022/10/24 10:02:09;;;;;;;4.60;1.00;;;15.20;99.90;;;;;;4920244;28;20057;-62
2022/10/24 10:04:37;;;;;;;6.68;1.25;;;15.30;99.90;;;;;;4945759;29;20054;-64
2022/10/24 10:07:17;;;;;;;2.13;0.82;;;15.40;99.90;;;;;;4937815;29;20349;-63
2022/10/24 10:09:55;;;;;;;6.55;1.30;;;15.30;99.90;;;;;;4949051;29;20105;-64
2022/10/24 10:12:34;;;;;;;6.15;2.03;;;15.20;99.90;;;;;;4956124;29;20058;-62
2022/10/24 10:15:22;;;;;;;10.52;2.13;;;15.20;99.90;;;;;;4949645;29;20047;-63
2022/10/24 10:17:50;;;;;;;6.10;1.27;;;15.20;99.90;;;;;;4940888;28;20052;-63
2022/10/24 10:20:27;;;;;;;8.52;1.30;;;15.20;99.90;;;;;;4946463;28;20063;-63
2022/10/24 10:22:54;;;;;;;5.68;1.00;;;15.10;99.90;;;;;;4924078;29;20562;-63
2022/10/24 10:25:29;;;;;;;7.05;1.70;;;15.10;99.90;;;;;;4946523;28;20058;-63
2022/10/24 10:27:57;;;;;;;5.40;1.38;;;15.20;99.90;;;;;;4918469;29;20154;-64
2022/10/24 10:30:28;;;;;;;9.68;1.52;;;15.20;99.90;;;;;;4937241;29;20055;-62
2022/10/24 10:33:14;;;;;;;8.82;1.25;;;15.20;99.90;;;;;;4935785;29;20518;-63
2022/10/24 10:35:48;;;;;;;7.03;1.45;;;15.20;99.90;;;;;;4935235;29;20135;-63
2022/10/24 10:39:01;;;;;;;10.57;1.58;;;15.20;99.90;;;;;;4921371;29;20056;-62
2022/10/24 10:41:47;;;;;;;17.20;2.10;;;15.20;99.90;;;;;;4878175;29;20048;-63
2022/10/24 10:44:39;;;;;;;7.25;1.20;;;15.20;99.90;;;;;;4873596;29;20088;-63
2022/10/24 10:47:34;;;;;;;7.25;1.48;;;15.30;99.90;;;;;;4936366;28;20052;-63
2022/10/24 10:50:02;;;;;;;8.85;1.40;;;15.40;99.90;;;;;;4915733;29;20106;-62
2022/10/24 10:52:31;;;;;;;4.40;1.25;;;15.50;99.90;;;;;;4935451;29;20058;-62
2022/10/24 10:55:15;;;;;;;5.28;1.13;;;15.60;99.90;;;;;;4923332;29;20083;-62
2022/10/24 10:57:51;;;;;;;8.77;1.30;;;15.70;99.90;;;;;;4923876;29;20054;-62
2022/10/24 11:00:34;;;;;;;10.60;1.20;;;15.80;99.90;;;;;;4946602;29;20055;-61
2022/10/24 11:03:23;;;;;;;14.18;2.72;;;15.80;99.90;;;;;;4917284;29;20052;-62
2022/10/24 11:06:09;;;;;;;8.07;2.28;;;15.80;99.90;;;;;;4946722;28;20050;-62
2022/10/24 11:08:55;;;;;;;12.77;1.38;;;15.90;99.90;;;;;;4934816;29;20086;-63
2022/10/24 11:11:26;;;;;;;7.05;1.20;;;15.90;99.90;;;;;;4940423;29;20086;-62
2022/10/24 11:14:13;;;;;;;7.65;1.45;;;16.00;99.90;;;;;;4919233;29;20054;-62
2022/10/24 11:16:40;;;;;;;5.93;1.60;;;16.00;99.90;;;;;;4961897;28;20079;-62
2022/10/24 11:19:38;;;;;;;4.53;0.80;;;16.10;99.90;;;;;;4951943;29;20503;-62
2022/10/24 11:22:05;;;;;;;4.30;0.95;;;16.10;99.90;;;;;;4935463;29;20054;-62
2022/10/24 11:24:44;;;;;;;5.63;1.40;;;16.20;99.90;;;;;;4935227;29;20066;-62
2022/10/24 11:27:20;;;;;;;8.02;1.83;;;16.10;99.90;;;;;;4927396;29;20061;-62
2022/10/24 11:30:14;;;;;;;5.70;1.30;;;16.20;99.90;;;;;;4933591;29;20079;-62
2022/10/24 11:32:57;;;;;;;3.25;1.02;;;16.20;99.90;;;;;;4926157;29;20048;-63
2022/10/24 11:35:36;;;;;;;10.73;1.13;;;16.30;99.90;;;;;;4896268;29;20043;-63
2022/10/24 11:38:15;;;;;;;7.43;1.52;;;16.40;99.90;;;;;;4940668;29;20539;-63
2022/10/24 11:40:42;;;;;;;6.90;1.20;;;16.50;99.90;;;;;;4922364;29;20140;-63
2022/10/24 11:43:23;;;;;;;7.18;1.30;;;16.70;99.90;;;;;;4921847;29;20623;-63
2022/10/24 11:46:12;;;;;;;3.55;0.98;;;16.80;99.90;;;;;;4909778;29;20066;-63
2022/10/24 11:48:52;;;;;;;5.20;1.27;;;16.80;99.90;;;;;;4947522;29;20059;-63
2022/10/24 11:51:29;;;;;;;6.55;1.27;;;16.90;99.90;;;;;;4915595;29;20134;-63
2022/10/24 11:53:57;;;;;;;9.27;1.08;;;17.00;99.90;;;;;;4918306;29;20066;-63
2022/10/24 11:56:32;;;;;;;9.20;1.42;;;17.10;99.90;;;;;;4930642;29;20054;-64
2022/10/24 11:59:23;;;;;;;6.35;1.50;;;17.30;99.90;;;;;;4937857;29;20393;-63
2022/10/24 12:02:19;;;;;;;11.15;1.20;;;17.40;99.90;;;;;;4940332;29;20085;-63
2022/10/24 12:05:13;;;;;;;9.73;1.27;;;17.40;99.90;;;;;;4923858;29;20076;-63
2022/10/24 12:08:13;;;;;;;9.77;1.85;;;17.40;99.90;;;;;;4944406;29;20491;-63
2022/10/24 12:11:03;;;;;;;4.50;1.02;;;17.30;99.90;;;;;;4933928;29;20058;-62
2022/10/24 12:13:42;;;;;;;9.40;1.45;;;17.20;99.90;;;;;;4941293;29;20044;-63
2022/10/24 12:18:58;;;;;;;7.63;1.38;;;17.30;99.90;;;;;;5141696;27;20445;-63
2022/10/24 12:21:26;;;;;;;7.57;1.63;;;17.60;99.90;;;;;;5074635;28;20075;-63
2022/10/24 12:24:02;;;;;;;11.27;1.70;;;17.70;99.90;;;;;;5083141;28;20135;-63
2022/10/24 12:26:33;;;;;;;10.68;3.05;;;17.70;99.90;;;;;;5092881;28;20050;-63
2022/10/24 12:29:04;;;;;;;11.88;1.85;;;17.80;99.90;;;;;;5096506;28;20058;-63
2022/10/24 12:31:34;;;;;;;8.73;1.95;;;17.90;99.90;;;;;;5091608;28;20050;-62
2022/10/24 12:34:21;;;;;;;9.25;2.40;;;17.90;99.90;;;;;;5098833;28;20048;-64
2022/10/24 12:37:08;;;;;;;8.38;1.65;;;17.90;99.90;;;;;;5110118;28;20146;-64
2022/10/24 12:39:39;;;;;;;12.30;1.98;;;17.80;99.90;;;;;;5116786;28;20074;-62
2022/10/24 12:42:34;;;;;;;17.10;2.42;;;17.80;99.90;;;;;;5088576;28;20035;-63
2022/10/24 12:45:00;;;;;;;8.65;2.28;;;17.80;99.90;;;;;;5051422;28;20471;-62
2022/10/24 12:47:35;;;;;;;8.18;1.83;;;17.70;99.90;;;;;;5109491;28;20390;-63
2022/10/24 12:50:20;;;;;;;14.90;2.00;;;17.70;99.90;;;;;;5106891;28;20054;-63
2022/10/24 12:52:47;;;;;;;14.73;2.60;;;17.60;99.90;;;;;;5126921;28;20539;-63
2022/10/24 12:55:36;;;;;;;9.65;1.67;;;17.60;99.90;;;;;;5118602;28;20105;-64
2022/10/24 12:58:22;;;;;;;11.50;2.20;;;17.50;99.90;;;;;;5125772;28;20588;-64
2022/10/24 13:01:09;;;;;;;20.02;2.30;;;17.40;99.90;;;;;;5103669;28;20039;-64
2022/10/24 13:03:54;;;;;;;20.95;3.53;;;17.50;99.90;;;;;;5120744;28;20406;-63
2022/10/24 13:06:57;;;;;;;9.55;1.92;;;17.70;99.90;;;;;;5112674;28;20090;-64
2022/10/24 13:09:48;;;;;;;13.82;2.13;;;17.80;99.90;;;;;;5088099;28;20138;-63
2022/10/24 13:12:35;;;;;;;11.85;2.50;;;18.00;99.90;;;;;;5071035;28;20125;-63
2022/10/24 13:15:20;;;;;;;19.05;2.65;;;18.20;99.90;;;;;;5107997;28;20485;-64